createdAt,value
2018-02-16T00:01:52.961Z,58.07
2018-02-16T00:04:20.533Z,57.37
2018-02-16T00:06:48.158Z,61.43
2018-02-16T00:09:15.740Z,53.13
2018-02-16T00:11:43.320Z,64.23
2018-02-16T00:14:10.944Z,47.10
2018-02-16T00:16:38.533Z,70.20
2018-02-16T00:19:06.098Z,50.77
2018-02-16T00:21:33.713Z,49.17
2018-02-16T00:24:01.257Z,56.97
2018-02-16T00:26:28.829Z,52.87
2018-02-16T00:28:56.431Z,49.47
2018-02-16T00:31:24.004Z,49.33
2018-02-16T00:33:51.575Z,59.30
2018-02-16T00:36:19.242Z,58.27
2018-02-16T00:38:46.906Z,60.47
2018-02-16T00:41:14.584Z,49.40
2018-02-16T00:43:42.204Z,59.47
2018-02-16T00:46:09.910Z,61.63
2018-02-16T00:48:37.485Z,62.90
2018-02-16T00:51:05.097Z,54.97
2018-02-16T00:53:32.676Z,55.13
2018-02-16T00:56:00.254Z,55.57
2018-02-16T00:58:28.026Z,59.97
2018-02-16T01:00:55.598Z,60.20
2018-02-16T01:03:23.166Z,58.53
2018-02-16T01:05:51.161Z,65.43
2018-02-16T01:08:18.759Z,61.57
2018-02-16T01:10:46.343Z,71.87
2018-02-16T01:13:14.337Z,85.10
2018-02-16T01:15:41.922Z,65.13
2018-02-16T01:18:09.493Z,64.80
2018-02-16T01:20:37.103Z,71.33
2018-02-16T01:23:04.670Z,64.13
2018-02-16T01:25:32.260Z,62.17
2018-02-16T01:27:59.961Z,69.37
2018-02-16T01:30:27.535Z,69.07
2018-02-16T01:32:55.103Z,47.23
2018-02-16T01:35:22.717Z,47.40
2018-02-16T01:37:50.299Z,57.30
2018-02-16T01:40:18.067Z,56.43
2018-02-16T01:42:45.722Z,66.23
2018-02-16T01:45:13.293Z,63.77
2018-02-16T01:47:40.873Z,61.97
2018-02-16T01:50:08.589Z,56.77
2018-02-16T01:52:36.377Z,59.80
2018-02-16T01:55:03.952Z,66.50
2018-02-16T01:57:31.595Z,62.60
2018-02-16T01:59:59.399Z,76.00
2018-02-16T02:02:27.018Z,78.00
2018-02-16T02:04:54.686Z,80.80
2018-02-16T02:07:22.351Z,83.23
2018-02-16T02:09:49.937Z,80.03
2018-02-16T02:12:17.671Z,85.20
2018-02-16T02:14:45.253Z,90.73
2018-02-16T02:17:12.974Z,93.10
2018-02-16T02:19:40.599Z,91.17
2018-02-16T02:22:08.187Z,88.70
2018-02-16T02:24:35.760Z,78.27
2018-02-16T02:27:03.374Z,88.03
2018-02-16T02:29:31.095Z,80.60
2018-02-16T02:31:58.751Z,75.33
2018-02-16T02:34:26.363Z,73.27
2018-02-16T02:36:54.090Z,87.97
2018-02-16T02:39:21.672Z,113.77
2018-02-16T02:41:49.296Z,82.20
2018-02-16T02:44:17.074Z,66.97
2018-02-16T02:46:44.730Z,91.00
2018-02-16T02:49:12.374Z,92.80
2018-02-16T02:51:40.049Z,81.70
2018-02-16T02:54:07.722Z,75.23
2018-02-16T02:56:35.332Z,75.67
2018-02-16T02:59:03.038Z,73.33
2018-02-16T03:01:30.627Z,70.97
2018-02-16T03:03:58.232Z,80.37
2018-02-16T03:06:32.668Z,67.77
2018-02-16T03:09:00.454Z,64.00
2018-02-16T03:11:28.112Z,65.03
2018-02-16T03:13:55.782Z,68.97
2018-02-16T03:16:23.386Z,57.30
2018-02-16T03:18:50.968Z,66.20
2018-02-16T03:21:18.544Z,56.90
2018-02-16T03:23:46.201Z,68.70
2018-02-16T03:26:13.766Z,68.30
2018-02-16T03:28:41.341Z,52.60
2018-02-16T03:31:08.946Z,57.60
2018-02-16T03:33:36.555Z,52.80
2018-02-16T03:36:04.315Z,51.70
2018-02-16T03:38:31.936Z,50.37
2018-02-16T03:41:00.053Z,54.43
2018-02-16T03:43:27.629Z,65.83
2018-02-16T03:45:55.242Z,64.23
2018-02-16T03:48:22.811Z,63.13
2018-02-16T03:50:50.398Z,70.17
2018-02-16T03:53:18.007Z,63.90
2018-02-16T03:55:45.830Z,59.53
2018-02-16T03:58:13.494Z,58.27
2018-02-16T04:00:41.103Z,51.10
2018-02-16T04:03:08.814Z,54.03
2018-02-16T04:05:36.396Z,54.33
2018-02-16T04:08:04.016Z,53.87
2018-02-16T04:10:31.793Z,55.37
2018-02-16T04:12:59.376Z,68.97
2018-02-16T04:15:27.134Z,61.47
2018-02-16T04:17:54.776Z,60.93
2018-02-16T04:20:22.459Z,64.90
2018-02-16T04:22:50.081Z,73.47
2018-02-16T04:25:17.779Z,69.10
2018-02-16T04:27:45.347Z,68.40
2018-02-16T04:30:12.954Z,64.33
2018-02-16T04:32:40.968Z,73.83
2018-02-16T04:35:08.547Z,66.77
2018-02-16T04:37:36.697Z,62.73
2018-02-16T04:40:04.272Z,59.20
2018-02-16T04:42:31.856Z,61.57
2018-02-16T04:44:59.508Z,66.77
2018-02-16T04:47:27.141Z,68.50
2018-02-16T04:49:54.711Z,63.10
2018-02-16T04:52:22.469Z,58.67
2018-02-16T04:54:50.054Z,66.20
2018-02-16T04:57:17.621Z,78.10
2018-02-16T04:59:45.211Z,61.03
2018-02-16T05:02:12.995Z,61.20
2018-02-16T05:04:40.747Z,66.13
2018-02-16T05:07:08.374Z,53.37
2018-02-16T05:09:35.965Z,69.07
2018-02-16T05:12:03.551Z,64.20
2018-02-16T05:14:31.182Z,58.43
2018-02-16T05:16:58.759Z,62.83
2018-02-16T05:19:26.333Z,63.50
2018-02-16T05:21:53.931Z,68.80
2018-02-16T05:24:21.512Z,70.40
2018-02-16T05:26:49.100Z,61.43
2018-02-16T05:29:16.702Z,55.83
2018-02-16T05:31:44.443Z,64.63
2018-02-16T05:34:12.143Z,58.00
2018-02-16T05:36:39.808Z,61.27
2018-02-16T05:39:07.436Z,56.83
2018-02-16T05:41:35.008Z,66.53
2018-02-16T05:44:02.759Z,65.00
2018-02-16T05:46:30.346Z,58.77
2018-02-16T05:48:58.146Z,58.00
2018-02-16T05:51:25.758Z,56.90
2018-02-16T05:53:53.615Z,56.83
2018-02-16T05:56:21.205Z,62.93
2018-02-16T05:58:48.924Z,56.13
2018-02-16T06:01:16.519Z,66.47
2018-02-16T06:03:44.108Z,70.90
2018-02-16T06:06:12.040Z,86.43
2018-02-16T06:08:39.624Z,59.83
2018-02-16T06:11:07.234Z,67.03
2018-02-16T06:13:34.857Z,62.10
2018-02-16T06:16:02.441Z,53.37
2018-02-16T06:18:30.015Z,54.33
2018-02-16T06:20:57.691Z,61.57
2018-02-16T06:23:25.404Z,45.67
2018-02-16T06:25:52.979Z,56.53
2018-02-16T06:28:20.583Z,72.87
2018-02-16T06:30:48.549Z,71.20
2018-02-16T06:33:16.202Z,80.30
2018-02-16T06:35:43.823Z,81.57
2018-02-16T06:38:11.395Z,98.53
2018-02-16T06:40:39.180Z,65.33
2018-02-16T06:43:07.112Z,72.20
2018-02-16T06:45:34.934Z,62.40
2018-02-16T06:48:02.497Z,66.83
2018-02-16T06:50:30.119Z,65.93
2018-02-16T06:52:57.756Z,76.23
2018-02-16T06:55:25.375Z,79.53
2018-02-16T06:57:53.049Z,83.77
2018-02-16T07:00:20.752Z,78.60
2018-02-16T07:02:48.325Z,75.80
2018-02-16T07:05:16.051Z,79.87
2018-02-16T07:07:43.687Z,75.40
2018-02-16T07:10:11.257Z,95.30
2018-02-16T07:12:38.863Z,89.87
2018-02-16T07:15:06.456Z,88.90
2018-02-16T07:17:34.132Z,92.53
2018-02-16T07:20:01.856Z,95.23
2018-02-16T07:22:29.455Z,90.37
2018-02-16T07:24:57.217Z,103.83
2018-02-16T07:27:24.969Z,87.47
2018-02-16T07:29:52.630Z,92.17
2018-02-16T07:32:20.289Z,98.37
2018-02-16T07:34:47.941Z,108.67
2018-02-16T07:37:15.530Z,98.90
2018-02-16T07:39:43.120Z,103.97
2018-02-16T07:42:10.739Z,103.10
2018-02-16T07:44:38.311Z,62.60
2018-02-16T07:47:05.863Z,66.03
2018-02-16T07:49:33.462Z,34.20
2018-02-16T07:52:01.191Z,47.33
2018-02-16T07:54:28.758Z,41.30
2018-02-16T07:56:56.363Z,44.30
2018-02-16T07:59:23.960Z,34.43
2018-02-16T08:01:51.526Z,41.63
2018-02-16T08:04:19.239Z,47.47
2018-02-16T08:06:46.848Z,63.50
2018-02-16T08:09:14.417Z,54.80
2018-02-16T08:11:42.066Z,49.70
2018-02-16T08:14:09.654Z,43.00
2018-02-16T08:16:37.236Z,51.17
2018-02-16T08:19:04.835Z,46.90
2018-02-16T08:21:32.942Z,35.50
2018-02-16T08:24:00.579Z,38.57
2018-02-16T08:26:28.196Z,38.20
2018-02-16T08:28:55.763Z,39.27
2018-02-16T08:31:23.365Z,35.33
2018-02-16T08:33:51.061Z,29.13
2018-02-16T08:36:18.631Z,33.10
2018-02-16T08:38:46.357Z,27.47
2018-02-16T08:41:13.981Z,21.67
2018-02-16T08:43:41.556Z,17.87
2018-02-16T08:46:09.217Z,27.13
2018-02-16T08:48:36.832Z,18.70
2018-02-16T08:51:04.525Z,22.83
2018-02-16T08:53:32.097Z,23.47
2018-02-16T08:55:59.702Z,20.07
2018-02-16T08:58:27.445Z,18.83
2018-02-16T09:00:55.104Z,21.40
2018-02-16T09:03:22.726Z,23.53
2018-02-16T09:05:50.332Z,21.93
2018-02-16T09:08:17.902Z,36.43
2018-02-16T09:10:45.658Z,17.67
2018-02-16T09:13:13.330Z,33.83
2018-02-16T09:15:40.979Z,30.73
2018-02-16T09:18:08.595Z,22.80
2018-02-16T09:20:36.160Z,53.17
2018-02-16T09:23:03.844Z,23.87
2018-02-16T09:25:31.473Z,22.60
2018-02-16T09:27:59.382Z,30.77
2018-02-16T09:30:27.049Z,47.93
2018-02-16T09:32:54.734Z,35.33
2018-02-16T09:35:22.429Z,41.63
2018-02-16T09:37:50.712Z,38.70
2018-02-16T09:40:19.423Z,42.13
2018-02-16T09:42:47.008Z,28.23
2018-02-16T09:45:14.667Z,33.63
2018-02-16T09:47:42.276Z,35.53
2018-02-16T09:50:09.994Z,36.83
2018-02-16T09:52:37.848Z,34.60
2018-02-16T09:55:05.531Z,66.23
2018-02-16T09:57:33.179Z,42.07
2018-02-16T10:00:00.763Z,33.13
2018-02-16T10:02:28.386Z,45.30
2018-02-16T10:04:55.975Z,37.33
2018-02-16T10:07:23.620Z,45.43
2018-02-16T10:09:51.301Z,33.93
2018-02-16T10:12:18.960Z,33.70
2018-02-16T10:14:46.624Z,28.33
2018-02-16T10:17:14.272Z,32.73
2018-02-16T10:19:41.929Z,34.20
2018-02-16T10:22:09.492Z,18.20
2018-02-16T10:24:37.257Z,21.10
2018-02-16T10:27:04.827Z,22.20
2018-02-16T10:29:32.406Z,24.53
2018-02-16T10:32:00.017Z,34.37
2018-02-16T10:34:27.717Z,22.20
2018-02-16T10:36:55.291Z,26.03
2018-02-16T10:39:22.908Z,22.00
2018-02-16T10:41:50.513Z,21.80
2018-02-16T10:44:18.095Z,24.33
2018-02-16T10:46:45.719Z,18.37
2018-02-16T10:49:13.338Z,20.43
2018-02-16T10:51:40.915Z,26.13
2018-02-16T10:54:08.510Z,22.30
2018-02-16T10:56:36.067Z,25.80
2018-02-16T10:59:03.659Z,26.97
2018-02-16T11:01:36.828Z,28.00
2018-02-16T11:04:05.438Z,30.43
2018-02-16T11:06:38.557Z,26.90
2018-02-16T11:09:23.700Z,23.50
2018-02-16T11:11:51.503Z,28.70
2018-02-16T11:14:19.065Z,26.37
2018-02-16T11:16:46.851Z,31.83
2018-02-16T11:19:14.455Z,39.00
2018-02-16T11:21:42.030Z,27.07
2018-02-16T11:24:09.605Z,21.97
2018-02-16T11:26:37.197Z,17.07
2018-02-16T11:29:04.762Z,30.73
2018-02-16T11:31:32.676Z,23.83
2018-02-16T11:34:00.318Z,28.80
2018-02-16T11:36:27.880Z,26.43
2018-02-16T11:38:55.435Z,17.10
2018-02-16T11:41:23.170Z,17.40
2018-02-16T11:43:50.746Z,32.10
2018-02-16T11:46:18.309Z,50.17
2018-02-16T11:48:45.909Z,48.73
2018-02-16T11:51:13.471Z,28.80
2018-02-16T11:53:41.044Z,162.53
2018-02-16T11:56:08.663Z,37.47
2018-02-16T11:58:36.225Z,14.23
2018-02-16T12:01:03.787Z,12.43
2018-02-16T12:03:31.607Z,17.17
2018-02-16T12:05:59.162Z,42.00
2018-02-16T12:08:26.913Z,20.43
2018-02-16T12:10:55.827Z,36.67
2018-02-16T12:13:23.463Z,24.73
2018-02-16T12:15:51.025Z,18.03
2018-02-16T12:18:18.635Z,27.20
2018-02-16T12:20:46.205Z,18.17
2018-02-16T12:23:13.764Z,18.50
2018-02-16T12:25:41.409Z,22.60
2018-02-16T12:28:08.961Z,21.97
2018-02-16T12:30:36.518Z,108.00
2018-02-16T12:33:04.132Z,15.10
2018-02-16T12:35:31.689Z,14.80
2018-02-16T12:37:59.487Z,58.07
2018-02-16T12:40:27.095Z,35.17
2018-02-16T12:42:54.815Z,21.20
2018-02-16T12:45:22.484Z,28.60
2018-02-16T12:47:50.145Z,32.33
2018-02-16T12:50:17.703Z,32.07
2018-02-16T12:52:45.277Z,23.87
2018-02-16T12:55:12.999Z,14.47
2018-02-16T12:57:40.585Z,24.40
2018-02-16T13:00:08.133Z,19.77
2018-02-16T13:02:35.896Z,16.80
2018-02-16T13:05:03.451Z,34.70
2018-02-16T13:07:31.023Z,21.63
2018-02-16T13:09:58.635Z,28.00
2018-02-16T13:12:26.204Z,20.87
2018-02-16T13:14:53.779Z,55.23
2018-02-16T13:17:21.371Z,18.13
2018-02-16T13:19:48.934Z,18.30
2018-02-16T13:22:16.493Z,19.47
2018-02-16T13:24:44.083Z,15.57
2018-02-16T13:27:11.645Z,23.57
2018-02-16T13:29:39.209Z,16.43
2018-02-16T13:32:06.789Z,16.70
2018-02-16T13:34:34.347Z,18.47
2018-02-16T13:37:01.921Z,20.23
2018-02-16T13:39:29.538Z,18.87
2018-02-16T13:41:57.090Z,16.20
2018-02-16T13:44:24.689Z,20.70
2018-02-16T13:46:52.304Z,16.17
2018-02-16T13:49:19.854Z,25.53
2018-02-16T13:51:47.436Z,16.80
2018-02-16T13:54:15.157Z,11.10
2018-02-16T13:56:42.709Z,21.00
2018-02-16T13:59:10.309Z,23.30
2018-02-16T14:01:37.901Z,16.47
2018-02-16T14:04:05.542Z,20.13
2018-02-16T14:06:33.112Z,18.57
2018-02-16T14:09:00.721Z,16.10
2018-02-16T14:11:30.873Z,21.60
2018-02-16T14:13:58.442Z,24.90
2018-02-16T14:16:26.126Z,30.83
2018-02-16T14:18:53.760Z,32.17
2018-02-16T14:21:21.406Z,19.77
2018-02-16T14:23:49.034Z,25.77
2018-02-16T14:26:16.591Z,21.03
2018-02-16T14:28:44.155Z,40.80
2018-02-16T14:31:11.853Z,17.43
2018-02-16T14:33:39.722Z,25.70
2018-02-16T14:36:07.295Z,22.83
2018-02-16T14:38:35.030Z,16.60
2018-02-16T14:41:02.621Z,22.97
2018-02-16T14:43:30.179Z,45.57
2018-02-16T14:45:57.803Z,31.23
2018-02-16T14:48:25.348Z,21.50
2018-02-16T14:50:52.943Z,17.73
2018-02-16T14:53:20.609Z,26.57
2018-02-16T14:55:48.177Z,17.50
2018-02-16T14:58:15.748Z,23.40
2018-02-16T15:00:43.595Z,17.37
2018-02-16T15:03:11.155Z,21.80
2018-02-16T15:05:38.720Z,36.23
2018-02-16T15:08:06.315Z,24.27
2018-02-16T15:10:33.870Z,19.83
2018-02-16T15:13:01.439Z,18.10
2018-02-16T15:15:29.036Z,28.63
2018-02-16T15:17:56.595Z,25.23
2018-02-16T15:20:24.164Z,22.47
2018-02-16T15:22:51.921Z,22.40
2018-02-16T15:25:19.776Z,34.13
2018-02-16T15:27:47.341Z,19.87
2018-02-16T15:30:14.935Z,27.40
2018-02-16T15:32:42.527Z,30.07
2018-02-16T15:35:10.112Z,30.13
2018-02-16T15:37:40.228Z,43.50
2018-02-16T15:40:09.963Z,171.40
2018-02-16T15:42:39.430Z,55.80
2018-02-16T15:45:09.378Z,32.07
2018-02-16T15:47:39.160Z,35.27
2018-02-16T15:50:09.478Z,24.83
2018-02-16T15:52:39.577Z,35.13
2018-02-16T15:55:09.297Z,33.43
2018-02-16T15:57:39.093Z,38.30
2018-02-16T16:00:09.659Z,37.13
2018-02-16T16:02:39.433Z,37.37
2018-02-16T16:05:07.590Z,39.43
2018-02-16T16:07:35.156Z,36.60
2018-02-16T16:10:02.733Z,45.60
2018-02-16T16:12:30.291Z,38.53
2018-02-16T16:14:57.860Z,43.10
2018-02-16T16:17:25.516Z,68.63
2018-02-16T16:19:53.071Z,48.17
2018-02-16T16:22:20.636Z,47.93
2018-02-16T16:24:48.280Z,50.97
2018-02-16T16:27:16.144Z,63.13
2018-02-16T16:29:43.756Z,52.80
2018-02-16T16:32:11.371Z,65.87
2018-02-16T16:34:38.940Z,63.13
2018-02-16T16:37:06.495Z,67.77
2018-02-16T16:39:34.099Z,67.40
2018-02-16T16:42:01.829Z,64.33
2018-02-16T16:44:29.395Z,72.20
2018-02-16T16:46:56.985Z,66.73
2018-02-16T16:49:24.559Z,71.97
2018-02-16T16:51:52.164Z,86.83
2018-02-16T16:54:19.817Z,75.17
2018-02-16T16:56:47.372Z,92.80
2018-02-16T16:59:14.947Z,85.33
2018-02-16T17:01:42.521Z,74.80
2018-02-16T17:04:10.094Z,74.63
2018-02-16T17:06:37.919Z,99.17
2018-02-16T17:09:06.213Z,86.03
2018-02-16T17:11:33.782Z,77.03
2018-02-16T17:14:01.519Z,55.30
2018-02-16T17:16:29.125Z,67.70
2018-02-16T17:18:56.834Z,79.47
2018-02-16T17:21:24.395Z,74.23
2018-02-16T17:23:52.003Z,61.57
2018-02-16T17:26:19.623Z,102.90
2018-02-16T17:28:47.184Z,74.40
2018-02-16T17:31:14.786Z,75.30
2018-02-16T17:33:42.341Z,80.37
2018-02-16T17:36:09.911Z,63.13
2018-02-16T17:38:37.518Z,90.47
2018-02-16T17:41:05.095Z,65.03
2018-02-16T17:43:32.838Z,66.83
2018-02-16T17:46:00.440Z,99.03
2018-02-16T17:48:28.158Z,94.70
2018-02-16T17:50:55.718Z,97.07
2018-02-16T17:53:23.481Z,76.73
2018-02-16T17:55:51.170Z,60.80
2018-02-16T17:58:18.727Z,66.40
2018-02-16T18:00:46.334Z,76.10
2018-02-16T18:03:13.897Z,70.47
2018-02-16T18:05:41.612Z,63.83
2018-02-16T18:08:09.199Z,64.73
2018-02-16T18:10:36.785Z,65.87
2018-02-16T18:13:04.373Z,39.03
2018-02-16T18:15:31.980Z,58.40
2018-02-16T18:17:59.543Z,53.70
2018-02-16T18:20:27.112Z,51.83
2018-02-16T18:22:54.707Z,44.70
2018-02-16T18:25:22.284Z,49.40
2018-02-16T18:27:49.958Z,41.27
2018-02-16T18:30:17.565Z,53.77
2018-02-16T18:32:45.147Z,49.00
2018-02-16T18:35:12.729Z,42.43
2018-02-16T18:37:40.400Z,40.53
2018-02-16T18:40:07.955Z,45.37
2018-02-16T18:42:35.509Z,53.03
2018-02-16T18:45:03.166Z,62.57
2018-02-16T18:47:30.728Z,82.17
2018-02-16T18:49:58.298Z,67.50
2018-02-16T18:52:25.943Z,53.47
2018-02-16T18:54:53.495Z,50.83
2018-02-16T18:57:21.265Z,57.87
2018-02-16T18:59:48.872Z,49.17
2018-02-16T19:02:16.429Z,48.30
2018-02-16T19:04:44.220Z,50.13
2018-02-16T19:07:11.940Z,49.47
2018-02-16T19:09:39.500Z,68.10
2018-02-16T19:12:07.087Z,54.67
2018-02-16T19:14:35.127Z,44.63
2018-02-16T19:17:02.678Z,43.67
2018-02-16T19:19:30.233Z,50.37
2018-02-16T19:21:57.828Z,56.50
2018-02-16T19:24:25.446Z,53.80
2018-02-16T19:26:53.029Z,57.93
2018-02-16T19:29:20.671Z,59.87
2018-02-16T19:31:48.267Z,58.73
2018-02-16T19:34:15.857Z,56.47
2018-02-16T19:36:43.481Z,56.30
2018-02-16T19:39:11.044Z,52.30
2018-02-16T19:41:38.653Z,58.83
2018-02-16T19:44:06.235Z,55.27
2018-02-16T19:46:33.811Z,63.17
2018-02-16T19:49:01.555Z,61.57
2018-02-16T19:51:29.170Z,60.77
2018-02-16T19:53:57.114Z,56.20
2018-02-16T19:56:24.740Z,61.03
2018-02-16T19:58:52.419Z,54.20
2018-02-16T20:01:19.979Z,52.63
2018-02-16T20:03:47.526Z,53.30
2018-02-16T20:06:15.120Z,52.97
2018-02-16T20:08:42.682Z,55.73
2018-02-16T20:11:10.256Z,69.50
2018-02-16T20:13:37.850Z,59.83
2018-02-16T20:16:05.411Z,60.10
2018-02-16T20:18:33.120Z,57.60
2018-02-16T20:21:00.783Z,58.87
2018-02-16T20:23:28.446Z,57.50
2018-02-16T20:25:56.107Z,69.57
2018-02-16T20:28:23.701Z,64.70
2018-02-16T20:30:51.272Z,58.03
2018-02-16T20:33:18.826Z,70.47
2018-02-16T20:35:46.427Z,75.43
2018-02-16T20:38:14.008Z,73.23
2018-02-16T20:40:41.672Z,99.60
2018-02-16T20:43:09.292Z,129.83
2018-02-16T20:45:36.853Z,91.53
2018-02-16T20:48:04.437Z,108.10
2018-02-16T20:50:32.032Z,115.20
2018-02-16T20:52:59.661Z,100.10
2018-02-16T20:55:27.216Z,93.63
2018-02-16T20:57:54.823Z,83.03
2018-02-16T21:00:22.373Z,94.23
2018-02-16T21:02:50.012Z,83.23
2018-02-16T21:05:17.648Z,76.23
2018-02-16T21:07:45.337Z,65.67
2018-02-16T21:10:12.913Z,61.83
2018-02-16T21:12:40.645Z,81.57
2018-02-16T21:15:10.171Z,59.83
2018-02-16T21:17:37.828Z,65.57
2018-02-16T21:20:05.435Z,55.70
2018-02-16T21:22:35.121Z,56.90
2018-02-16T21:25:06.727Z,61.07
2018-02-16T21:27:37.759Z,81.63
2018-02-16T21:30:09.394Z,76.37
2018-02-16T21:32:38.959Z,70.30
2018-02-16T21:35:08.853Z,64.37
2018-02-16T21:37:38.714Z,77.17
2018-02-16T21:40:08.157Z,63.20
2018-02-16T21:42:37.626Z,70.27
2018-02-16T21:45:07.133Z,64.40
2018-02-16T21:47:37.056Z,82.77
2018-02-16T21:50:05.292Z,62.27
2018-02-16T21:52:32.905Z,74.73
2018-02-16T21:55:00.484Z,79.03
2018-02-16T21:57:28.279Z,64.07
2018-02-16T21:59:56.110Z,65.87
2018-02-16T22:02:23.674Z,64.03
2018-02-16T22:04:51.280Z,78.50
2018-02-16T22:07:18.918Z,78.93
2018-02-16T22:09:46.490Z,85.13
2018-02-16T22:12:14.097Z,101.93
2018-02-16T22:14:41.637Z,90.23
2018-02-16T22:17:09.199Z,103.60
2018-02-16T22:19:36.850Z,88.60
2018-02-16T22:22:04.415Z,129.40
2018-02-16T22:24:31.980Z,74.73
2018-02-16T22:26:59.599Z,68.47
2018-02-16T22:29:27.166Z,70.30
2018-02-16T22:31:54.927Z,64.47
2018-02-16T22:34:22.531Z,67.23
2018-02-16T22:36:50.099Z,69.83
2018-02-16T22:39:17.718Z,88.47
2018-02-16T22:41:45.387Z,92.93
2018-02-16T22:44:13.028Z,104.87
2018-02-16T22:46:40.598Z,93.80
2018-02-16T22:49:08.198Z,107.00
2018-02-16T22:51:35.827Z,107.03
2018-02-16T22:54:03.391Z,90.33
2018-02-16T22:56:31.025Z,107.03
2018-02-16T22:58:58.596Z,104.70
2018-02-16T23:01:26.175Z,120.97
2018-02-16T23:03:53.751Z,91.90
2018-02-16T23:06:21.374Z,96.83
2018-02-16T23:08:48.936Z,96.07
2018-02-16T23:11:16.535Z,109.73
2018-02-16T23:13:44.172Z,94.17
2018-02-16T23:16:11.732Z,110.33
2018-02-16T23:18:39.330Z,99.17
2018-02-16T23:21:06.871Z,92.77
2018-02-16T23:23:34.428Z,86.03
2018-02-16T23:26:02.041Z,87.20
2018-02-16T23:28:30.155Z,113.97
2018-02-16T23:30:57.832Z,97.20
2018-02-16T23:33:25.661Z,100.00
2018-02-16T23:35:53.216Z,101.13
2018-02-16T23:38:20.799Z,90.63
2018-02-16T23:40:48.406Z,100.87
2018-02-16T23:43:15.917Z,111.90
2018-02-16T23:45:43.533Z,115.70
2018-02-16T23:48:11.240Z,102.93
2018-02-16T23:50:39.040Z,101.37
2018-02-16T23:53:06.722Z,85.30
2018-02-16T23:55:34.363Z,89.53
2018-02-16T23:58:02.048Z,87.50
